createdAt,value
2022-08-21T05:32:33.189Z,13.20
2022-08-21T05:37:37.850Z,15.40
2022-08-21T05:42:42.213Z,15.90
2022-08-21T05:47:46.491Z,17.00
2022-08-21T05:52:53.270Z,15.80
2022-08-21T05:58:02.971Z,19.00
2022-08-21T06:03:15.234Z,17.00
2022-08-21T06:08:23.662Z,19.70
2022-08-21T06:13:29.573Z,20.10
2022-08-21T06:18:34.355Z,21.00
2022-08-21T06:23:39.719Z,21.30
2022-08-21T06:28:47.316Z,19.10
2022-08-21T06:33:53.412Z,19.10
2022-08-21T06:38:58.053Z,22.50
2022-08-21T06:44:04.149Z,21.40
2022-08-21T06:49:09.014Z,21.60
2022-08-21T06:54:23.679Z,25.00
2022-08-21T06:59:28.517Z,21.80
2022-08-21T07:04:35.610Z,20.70
2022-08-21T07:09:41.208Z,16.30
2022-08-21T07:14:46.002Z,15.00
2022-08-21T07:19:50.933Z,17.00
2022-08-21T07:24:57.012Z,16.70
2022-08-21T07:30:01.418Z,15.00
2022-08-21T07:35:07.454Z,11.60
2022-08-21T07:40:11.983Z,15.10
2022-08-21T07:45:17.112Z,14.00
2022-08-21T07:50:22.054Z,11.20
2022-08-21T07:55:28.148Z,13.70
2022-08-21T08:00:34.926Z,12.10
2022-08-21T08:05:41.619Z,12.30
2022-08-21T08:10:48.108Z,7.90
2022-08-21T08:15:54.391Z,10.00
2022-08-21T08:20:58.565Z,9.50
2022-08-21T08:26:07.034Z,12.10
2022-08-21T08:31:12.780Z,12.50
2022-08-21T08:36:20.844Z,11.00
2022-08-21T08:41:30.900Z,11.70
2022-08-21T08:46:47.820Z,11.80
2022-08-21T08:52:14.139Z,11.70
2022-08-21T08:57:22.869Z,13.10
2022-08-21T09:02:31.018Z,10.70
2022-08-21T09:07:49.866Z,10.70
2022-08-21T09:13:34.303Z,9.40
2022-08-21T09:19:32.697Z,11.30
2022-08-21T09:25:14.393Z,12.70
2022-08-21T09:30:25.239Z,11.10
2022-08-21T09:35:29.625Z,11.60
2022-08-21T09:40:47.240Z,11.60
2022-08-21T09:46:25.114Z,11.40
2022-08-21T09:51:37.511Z,11.80
2022-08-21T09:57:25.836Z,11.50
2022-08-21T10:07:41.483Z,9.30
2022-08-21T10:18:56.370Z,8.80
2022-08-21T10:24:34.180Z,9.30
2022-08-21T10:30:05.203Z,8.90
2022-08-21T10:35:38.121Z,10.10
2022-08-21T10:41:30.050Z,9.00
2022-08-21T10:46:59.982Z,10.00
2022-08-21T10:52:39.619Z,8.40
2022-08-21T10:58:01.667Z,7.90
2022-08-21T11:03:22.068Z,8.00
2022-08-21T11:08:37.420Z,7.60
2022-08-21T11:13:49.634Z,8.40
2022-08-21T11:19:19.362Z,8.70
2022-08-21T11:25:11.955Z,7.60
2022-08-21T11:30:17.272Z,7.70
2022-08-21T11:35:51.429Z,7.80
2022-08-21T11:41:13.574Z,7.50
2022-08-21T11:47:13.481Z,7.90
2022-08-21T11:52:23.847Z,8.00
2022-08-21T11:57:42.949Z,7.50
2022-08-21T12:02:55.122Z,7.30
2022-08-21T12:08:36.240Z,7.80
2022-08-21T12:13:56.336Z,6.60
2022-08-21T12:19:15.107Z,6.80
2022-08-21T12:24:34.348Z,6.10
2022-08-21T12:29:40.355Z,6.90
2022-08-21T12:34:52.453Z,7.00
2022-08-21T12:40:01.401Z,7.30
2022-08-21T12:45:17.336Z,7.30
2022-08-21T12:50:48.953Z,6.40
2022-08-21T12:55:54.354Z,7.70
2022-08-21T13:01:07.243Z,7.50
2022-08-21T13:06:19.101Z,7.60
2022-08-21T13:11:33.638Z,7.00
2022-08-21T13:16:38.640Z,7.00
2022-08-21T13:21:46.077Z,7.30
2022-08-21T13:26:52.266Z,7.90
2022-08-21T13:32:01.943Z,7.20
2022-08-21T13:37:10.308Z,7.40
2022-08-21T13:42:16.368Z,7.70
2022-08-21T13:47:22.072Z,6.60
2022-08-21T13:52:28.784Z,7.40
2022-08-21T13:57:35.732Z,7.10
2022-08-21T14:02:46.024Z,9.70
2022-08-21T14:08:05.343Z,23.00
2022-08-21T14:13:29.123Z,20.60
2022-08-21T14:18:33.361Z,12.10
2022-08-21T14:23:38.013Z,7.60
2022-08-21T14:28:43.770Z,6.40
2022-08-21T14:33:48.981Z,10.80
2022-08-21T14:38:54.010Z,9.40
2022-08-21T14:44:05.921Z,7.80
2022-08-21T14:49:14.490Z,7.10
2022-08-21T14:54:18.691Z,7.70
2022-08-21T14:59:23.900Z,7.50
2022-08-21T15:04:29.630Z,9.00
2022-08-21T15:09:34.701Z,9.80
2022-08-21T15:14:42.679Z,10.40
2022-08-21T15:19:47.474Z,11.40
2022-08-21T15:24:52.843Z,11.10
2022-08-21T15:29:57.629Z,7.20
2022-08-21T15:35:05.344Z,7.30
2022-08-21T15:40:11.222Z,6.10
2022-08-21T15:45:17.305Z,5.10
2022-08-21T15:50:23.164Z,5.10
2022-08-21T15:55:27.677Z,5.00
2022-08-21T16:00:36.922Z,4.10
2022-08-21T16:05:42.192Z,5.50
2022-08-21T16:10:46.535Z,4.00
2022-08-21T16:15:51.584Z,4.90
2022-08-21T16:20:55.916Z,4.50
2022-08-21T16:26:01.282Z,5.10
2022-08-21T16:31:06.396Z,4.40
2022-08-21T16:36:15.073Z,5.90
2022-08-21T16:41:21.688Z,5.80
2022-08-21T16:46:39.138Z,5.00
2022-08-21T16:51:44.400Z,6.90
2022-08-21T16:56:49.026Z,5.80
2022-08-21T17:01:55.284Z,5.20
2022-08-21T17:06:59.760Z,5.00
2022-08-21T17:12:06.357Z,6.20
2022-08-21T17:17:12.787Z,5.70
2022-08-21T17:22:16.875Z,5.00
2022-08-21T17:27:26.630Z,6.00
2022-08-21T17:32:32.811Z,6.10
2022-08-21T17:37:38.475Z,5.40
2022-08-21T17:42:49.976Z,5.40
2022-08-21T17:47:59.670Z,6.00
2022-08-21T17:53:05.009Z,6.10
2022-08-21T17:58:15.150Z,4.80
2022-08-21T18:03:23.497Z,5.40
2022-08-21T18:08:28.007Z,4.90
2022-08-21T18:13:38.078Z,5.10
2022-08-21T18:18:44.749Z,5.80
2022-08-21T18:23:50.068Z,5.60
2022-08-21T18:28:55.564Z,5.10
2022-08-21T18:34:03.384Z,5.70
2022-08-21T18:39:34.337Z,5.90
2022-08-21T18:44:33.102Z,4.50
2022-08-21T18:49:37.085Z,4.20
2022-08-21T18:54:44.524Z,4.50
2022-08-21T18:59:49.683Z,7.00
2022-08-21T19:04:54.185Z,5.50
2022-08-21T19:10:24.437Z,5.30
2022-08-21T19:15:23.925Z,5.00
2022-08-21T19:20:43.165Z,4.80
2022-08-21T19:26:03.593Z,5.20
2022-08-21T19:31:34.017Z,4.20
2022-08-21T19:36:39.756Z,4.40
2022-08-21T19:47:19.377Z,5.00
2022-08-21T19:52:24.921Z,5.10
2022-08-21T19:57:30.938Z,4.40
2022-08-21T20:07:57.062Z,3.70
2022-08-21T20:13:01.586Z,4.50
2022-08-21T20:18:17.840Z,3.60
2022-08-21T20:28:55.274Z,4.20
2022-08-21T20:34:07.602Z,3.90
2022-08-21T20:39:19.386Z,3.60
2022-08-21T20:44:47.494Z,3.70
2022-08-21T20:50:04.061Z,3.70
2022-08-21T20:55:19.256Z,3.00
2022-08-21T21:00:49.689Z,2.10
2022-08-21T21:06:13.926Z,2.80
2022-08-21T21:11:46.341Z,2.10
2022-08-21T21:17:04.393Z,1.80
2022-08-21T21:22:29.739Z,2.30
2022-08-21T21:27:42.413Z,2.10
2022-08-21T21:32:53.261Z,2.20
2022-08-21T21:38:12.280Z,1.50
2022-08-21T21:43:38.720Z,1.70
2022-08-21T21:49:06.291Z,2.50
2022-08-21T21:55:02.327Z,1.50
2022-08-21T22:00:20.764Z,1.30
2022-08-21T22:06:07.610Z,1.50
2022-08-21T22:11:59.193Z,1.80
2022-08-21T22:17:26.820Z,2.00
2022-08-21T22:22:34.893Z,1.40
2022-08-21T22:27:43.782Z,1.90
2022-08-21T22:32:50.842Z,1.50
2022-08-21T22:38:00.037Z,1.50
2022-08-21T22:43:16.924Z,1.80
2022-08-21T22:48:23.663Z,1.90
2022-08-21T22:53:33.632Z,2.10
2022-08-21T22:59:01.938Z,1.80
2022-08-21T23:04:26.279Z,1.30
2022-08-21T23:09:49.832Z,1.60
2022-08-21T23:14:57.869Z,1.90
2022-08-21T23:20:18.077Z,1.10
2022-08-21T23:26:12.313Z,1.60
2022-08-21T23:32:00.789Z,1.50
2022-08-21T23:37:52.018Z,2.20
2022-08-21T23:43:10.369Z,1.30
2022-08-21T23:48:19.718Z,1.80
2022-08-21T23:53:52.007Z,2.50
2022-08-21T23:59:01.732Z,1.90
